sensor_id;sensor_type;location;lat;lon;timestamp;pressure;altitude;pressure_sealevel;temperature;humidity
48053;BME280;33824;51.600;5.718;2023-01-31T00:01:18;102304.09;;;3.16;97.13
48053;BME280;33824;51.600;5.718;2023-01-31T00:03:44;102303.75;;;3.22;96.44
48053;BME280;33824;51.600;5.718;2023-01-31T00:06:23;102311.94;;;3.18;95.76
48053;BME280;33824;51.600;5.718;2023-01-31T00:08:49;102318.91;;;3.19;96.53
48053;BME280;33824;51.600;5.718;2023-01-31T00:11:20;102318.31;;;3.14;96.34
48053;BME280;33824;51.600;5.718;2023-01-31T00:13:46;102321.88;;;3.13;96.43
48053;BME280;33824;51.600;5.718;2023-01-31T00:16:14;102327.41;;;3.08;97.30
48053;BME280;33824;51.600;5.718;2023-01-31T00:18:39;102325.75;;;3.07;97.15
48053;BME280;33824;51.600;5.718;2023-01-31T00:21:11;102324.47;;;2.99;97.14
48053;BME280;33824;51.600;5.718;2023-01-31T00:23:37;102322.88;;;2.66;98.80
48053;BME280;33824;51.600;5.718;2023-01-31T00:28:43;102339.28;;;2.85;98.48
48053;BME280;33824;51.600;5.718;2023-01-31T00:31:10;102333.56;;;2.93;97.80
48053;BME280;33824;51.600;5.718;2023-01-31T00:33:37;102331.66;;;2.97;97.64
48053;BME280;33824;51.600;5.718;2023-01-31T00:36:09;102324.84;;;2.93;97.43
48053;BME280;33824;51.600;5.718;2023-01-31T00:38:35;102325.59;;;2.95;97.37
48053;BME280;33824;51.600;5.718;2023-01-31T00:41:01;102338.78;;;2.95;97.61
48053;BME280;33824;51.600;5.718;2023-01-31T00:43:29;102334.44;;;2.94;97.94
48053;BME280;33824;51.600;5.718;2023-01-31T00:45:54;102326.53;;;2.94;98.07
48053;BME280;33824;51.600;5.718;2023-01-31T00:48:20;102320.50;;;2.92;98.26
48053;BME280;33824;51.600;5.718;2023-01-31T00:50:46;102318.72;;;2.92;98.20
48053;BME280;33824;51.600;5.718;2023-01-31T00:53:11;102312.50;;;2.93;98.16
48053;BME280;33824;51.600;5.718;2023-01-31T00:55:37;102310.72;;;2.94;98.55
48053;BME280;33824;51.600;5.718;2023-01-31T00:58:03;102312.59;;;2.92;98.57
48053;BME280;33824;51.600;5.718;2023-01-31T01:00:29;102311.84;;;2.89;98.43
48053;BME280;33824;51.600;5.718;2023-01-31T01:02:55;102308.44;;;2.87;99.11
48053;BME280;33824;51.600;5.718;2023-01-31T01:05:21;102321.38;;;2.92;98.71
48053;BME280;33824;51.600;5.718;2023-01-31T01:07:46;102320.69;;;2.88;99.06
48053;BME280;33824;51.600;5.718;2023-01-31T01:10:12;102307.53;;;2.88;99.02
48053;BME280;33824;51.600;5.718;2023-01-31T01:12:37;102308.38;;;2.89;99.16
48053;BME280;33824;51.600;5.718;2023-01-31T01:15:04;102297.47;;;2.95;98.69
48053;BME280;33824;51.600;5.718;2023-01-31T01:17:29;102294.16;;;2.92;98.45
48053;BME280;33824;51.600;5.718;2023-01-31T01:19:55;102295.94;;;2.91;98.61
48053;BME280;33824;51.600;5.718;2023-01-31T01:22:20;102285.03;;;2.97;98.49
48053;BME280;33824;51.600;5.718;2023-01-31T01:24:46;102290.22;;;2.99;98.30
48053;BME280;33824;51.600;5.718;2023-01-31T01:27:12;102290.16;;;3.00;98.71
48053;BME280;33824;51.600;5.718;2023-01-31T01:29:38;102279.41;;;3.03;98.64
48053;BME280;33824;51.600;5.718;2023-01-31T01:32:05;102275.84;;;3.04;98.21
48053;BME280;33824;51.600;5.718;2023-01-31T01:34:32;102277.63;;;3.04;98.71
48053;BME280;33824;51.600;5.718;2023-01-31T01:36:58;102273.78;;;3.09;98.37
48053;BME280;33824;51.600;5.718;2023-01-31T01:39:24;102277.19;;;3.11;98.34
48053;BME280;33824;51.600;5.718;2023-01-31T01:41:50;102261.25;;;3.13;98.39
48053;BME280;33824;51.600;5.718;2023-01-31T01:44:55;102271.25;;;3.08;98.68
48053;BME280;33824;51.600;5.718;2023-01-31T01:50:38;102266.25;;;3.17;99.01
48053;BME280;33824;51.600;5.718;2023-01-31T01:53:13;102263.28;;;2.94;99.37
48053;BME280;33824;51.600;5.718;2023-01-31T01:55:44;102263.81;;;3.14;98.98
48053;BME280;33824;51.600;5.718;2023-01-31T01:58:15;102267.84;;;3.20;98.77
48053;BME280;33824;51.600;5.718;2023-01-31T02:00:46;102261.19;;;3.28;98.76
48053;BME280;33824;51.600;5.718;2023-01-31T02:03:12;102260.25;;;3.29;98.19
48053;BME280;33824;51.600;5.718;2023-01-31T02:05:55;102269.03;;;3.30;97.94
48053;BME280;33824;51.600;5.718;2023-01-31T02:08:23;102268.75;;;3.34;97.46
48053;BME280;33824;51.600;5.718;2023-01-31T02:11:02;102270.16;;;3.26;96.63
48053;BME280;33824;51.600;5.718;2023-01-31T02:13:28;102276.75;;;3.33;96.65
48053;BME280;33824;51.600;5.718;2023-01-31T02:15:55;102279.38;;;3.33;96.80
48053;BME280;33824;51.600;5.718;2023-01-31T02:18:22;102278.44;;;3.34;97.15
48053;BME280;33824;51.600;5.718;2023-01-31T02:29:53;102284.28;;;3.53;96.84
48053;BME280;33824;51.600;5.718;2023-01-31T02:35:27;102297.38;;;3.41;96.36
48053;BME280;33824;51.600;5.718;2023-01-31T02:38:27;102284.47;;;3.36;96.58
48053;BME280;33824;51.600;5.718;2023-01-31T02:41:15;102289.84;;;3.34;97.17
48053;BME280;33824;51.600;5.718;2023-01-31T02:44:09;102282.00;;;3.33;97.18
48053;BME280;33824;51.600;5.718;2023-01-31T02:47:03;102285.69;;;3.45;97.81
48053;BME280;33824;51.600;5.718;2023-01-31T02:49:35;102288.44;;;3.57;97.47
48053;BME280;33824;51.600;5.718;2023-01-31T02:52:20;102280.81;;;3.53;96.95
48053;BME280;33824;51.600;5.718;2023-01-31T02:55:13;102274.41;;;3.57;97.10
48053;BME280;33824;51.600;5.718;2023-01-31T02:58:02;102265.38;;;3.61;97.30
48053;BME280;33824;51.600;5.718;2023-01-31T03:00:32;102267.88;;;3.62;97.90
48053;BME280;33824;51.600;5.718;2023-01-31T03:02:58;102268.06;;;3.73;97.80
48053;BME280;33824;51.600;5.718;2023-01-31T03:05:24;102269.56;;;3.77;98.13
48053;BME280;33824;51.600;5.718;2023-01-31T03:07:56;102262.16;;;3.84;97.80
48053;BME280;33824;51.600;5.718;2023-01-31T03:13:10;102257.53;;;3.88;97.80
48053;BME280;33824;51.600;5.718;2023-01-31T03:15:54;102261.19;;;3.85;97.98
48053;BME280;33824;51.600;5.718;2023-01-31T03:21:45;102259.19;;;3.88;98.78
48053;BME280;33824;51.600;5.718;2023-01-31T03:24:14;102252.63;;;3.96;98.94
48053;BME280;33824;51.600;5.718;2023-01-31T03:26:41;102250.50;;;4.01;99.46
48053;BME280;33824;51.600;5.718;2023-01-31T03:29:09;102242.09;;;4.08;98.86
48053;BME280;33824;51.600;5.718;2023-01-31T03:31:39;102248.22;;;4.09;98.78
48053;BME280;33824;51.600;5.718;2023-01-31T03:34:08;102242.94;;;4.09;98.74
48053;BME280;33824;51.600;5.718;2023-01-31T03:36:46;102246.00;;;4.03;98.88
48053;BME280;33824;51.600;5.718;2023-01-31T03:39:28;102244.28;;;4.02;98.85
48053;BME280;33824;51.600;5.718;2023-01-31T03:42:10;102230.44;;;3.98;99.15
48053;BME280;33824;51.600;5.718;2023-01-31T03:47:35;102223.38;;;3.99;99.13
48053;BME280;33824;51.600;5.718;2023-01-31T03:50:22;102228.84;;;3.96;99.84
48053;BME280;33824;51.600;5.718;2023-01-31T03:53:06;102220.94;;;3.96;100.00
48053;BME280;33824;51.600;5.718;2023-01-31T03:55:51;102220.63;;;4.00;99.62
48053;BME280;33824;51.600;5.718;2023-01-31T03:58:19;102222.41;;;4.14;99.47
48053;BME280;33824;51.600;5.718;2023-01-31T04:00:48;102211.84;;;4.14;100.00
48053;BME280;33824;51.600;5.718;2023-01-31T04:05:47;102207.84;;;4.21;100.00
48053;BME280;33824;51.600;5.718;2023-01-31T04:08:14;102219.06;;;4.24;100.00
48053;BME280;33824;51.600;5.718;2023-01-31T04:10:40;102211.03;;;4.26;100.00
48053;BME280;33824;51.600;5.718;2023-01-31T04:13:06;102213.06;;;4.35;100.00
48053;BME280;33824;51.600;5.718;2023-01-31T04:15:31;102217.28;;;4.38;100.00
48053;BME280;33824;51.600;5.718;2023-01-31T04:17:57;102208.44;;;4.39;100.00
48053;BME280;33824;51.600;5.718;2023-01-31T04:20:23;102208.97;;;4.44;100.00
48053;BME280;33824;51.600;5.718;2023-01-31T04:22:48;102208.84;;;4.45;100.00
48053;BME280;33824;51.600;5.718;2023-01-31T04:25:14;102204.53;;;4.44;100.00
48053;BME280;33824;51.600;5.718;2023-01-31T04:27:39;102203.69;;;4.44;100.00
48053;BME280;33824;51.600;5.718;2023-01-31T04:30:06;102207.06;;;4.46;100.00
48053;BME280;33824;51.600;5.718;2023-01-31T04:32:32;102203.69;;;4.44;100.00
48053;BME280;33824;51.600;5.718;2023-01-31T04:34:57;102187.22;;;4.40;100.00
48053;BME280;33824;51.600;5.718;2023-01-31T04:37:23;102186.34;;;4.40;100.00
48053;BME280;33824;51.600;5.718;2023-01-31T04:39:48;102189.94;;;4.39;100.00
48053;BME280;33824;51.600;5.718;2023-01-31T04:42:14;102197.13;;;4.37;100.00
48053;BME280;33824;51.600;5.718;2023-01-31T04:44:40;102193.09;;;4.31;100.00
48053;BME280;33824;51.600;5.718;2023-01-31T04:47:05;102188.88;;;4.28;100.00
48053;BME280;33824;51.600;5.718;2023-01-31T04:49:31;102182.72;;;4.28;100.00
48053;BME280;33824;51.600;5.718;2023-01-31T04:51:57;102193.22;;;4.29;100.00
48053;BME280;33824;51.600;5.718;2023-01-31T04:54:22;102183.03;;;4.23;100.00
48053;BME280;33824;51.600;5.718;2023-01-31T04:56:48;102190.09;;;4.23;100.00
48053;BME280;33824;51.600;5.718;2023-01-31T04:59:13;102177.09;;;4.20;100.00
48053;BME280;33824;51.600;5.718;2023-01-31T05:01:39;102165.25;;;4.13;100.00
48053;BME280;33824;51.600;5.718;2023-01-31T05:04:06;102157.63;;;4.08;100.00
48053;BME280;33824;51.600;5.718;2023-01-31T05:06:32;102162.28;;;4.05;100.00
48053;BME280;33824;51.600;5.718;2023-01-31T05:08:57;102174.81;;;4.01;100.00
48053;BME280;33824;51.600;5.718;2023-01-31T05:11:26;102172.25;;;4.00;100.00
48053;BME280;33824;51.600;5.718;2023-01-31T05:13:52;102167.84;;;4.00;100.00
48053;BME280;33824;51.600;5.718;2023-01-31T05:16:18;102164.34;;;4.00;100.00
48053;BME280;33824;51.600;5.718;2023-01-31T05:18:43;102167.00;;;4.00;100.00
48053;BME280;33824;51.600;5.718;2023-01-31T05:21:09;102168.41;;;4.05;100.00
48053;BME280;33824;51.600;5.718;2023-01-31T05:23:35;102160.56;;;4.04;100.00
48053;BME280;33824;51.600;5.718;2023-01-31T05:26:02;102159.25;;;4.11;100.00
48053;BME280;33824;51.600;5.718;2023-01-31T05:28:27;102157.03;;;4.17;100.00
48053;BME280;33824;51.600;5.718;2023-01-31T05:30:59;102150.91;;;4.17;100.00
48053;BME280;33824;51.600;5.718;2023-01-31T05:33:25;102151.56;;;4.20;100.00
48053;BME280;33824;51.600;5.718;2023-01-31T05:35:52;102155.91;;;4.21;100.00
48053;BME280;33824;51.600;5.718;2023-01-31T05:38:18;102141.72;;;4.22;100.00
48053;BME280;33824;51.600;5.718;2023-01-31T05:40:44;102154.75;;;4.25;100.00
48053;BME280;33824;51.600;5.718;2023-01-31T05:43:09;102146.50;;;4.30;100.00
48053;BME280;33824;51.600;5.718;2023-01-31T05:45:35;102141.03;;;4.33;100.00
48053;BME280;33824;51.600;5.718;2023-01-31T05:48:01;102141.69;;;4.37;100.00
48053;BME280;33824;51.600;5.718;2023-01-31T05:50:28;102140.69;;;4.38;100.00
48053;BME280;33824;51.600;5.718;2023-01-31T05:52:58;102125.19;;;4.33;100.00
48053;BME280;33824;51.600;5.718;2023-01-31T05:55:25;102129.19;;;4.39;100.00
48053;BME280;33824;51.600;5.718;2023-01-31T05:57:52;102134.41;;;4.40;100.00
48053;BME280;33824;51.600;5.718;2023-01-31T06:00:18;102127.84;;;4.46;100.00
48053;BME280;33824;51.600;5.718;2023-01-31T06:02:44;102128.16;;;4.41;99.95
48053;BME280;33824;51.600;5.718;2023-01-31T06:05:10;102136.59;;;4.46;99.71
48053;BME280;33824;51.600;5.718;2023-01-31T06:07:36;102125.94;;;4.48;99.34
48053;BME280;33824;51.600;5.718;2023-01-31T06:10:03;102131.31;;;4.46;99.47
48053;BME280;33824;51.600;5.718;2023-01-31T06:12:29;102132.59;;;4.41;99.47
48053;BME280;33824;51.600;5.718;2023-01-31T06:14:56;102128.81;;;4.45;99.11
48053;BME280;33824;51.600;5.718;2023-01-31T06:17:21;102131.31;;;4.46;98.97
48053;BME280;33824;51.600;5.718;2023-01-31T06:19:48;102129.31;;;4.50;98.84
48053;BME280;33824;51.600;5.718;2023-01-31T06:22:14;102134.59;;;4.50;98.44
48053;BME280;33824;51.600;5.718;2023-01-31T06:24:40;102135.56;;;4.49;98.50
48053;BME280;33824;51.600;5.718;2023-01-31T06:27:05;102132.81;;;4.50;98.19
48053;BME280;33824;51.600;5.718;2023-01-31T06:29:31;102138.00;;;4.52;97.83
48053;BME280;33824;51.600;5.718;2023-01-31T06:31:56;102136.59;;;4.46;98.16
48053;BME280;33824;51.600;5.718;2023-01-31T06:34:22;102127.44;;;4.52;97.63
48053;BME280;33824;51.600;5.718;2023-01-31T06:36:47;102127.44;;;4.52;97.53
48053;BME280;33824;51.600;5.718;2023-01-31T06:39:13;102136.41;;;4.49;97.65
48053;BME280;33824;51.600;5.718;2023-01-31T06:41:39;102132.09;;;4.48;97.76
48053;BME280;33824;51.600;5.718;2023-01-31T06:44:04;102132.09;;;4.48;97.75
48053;BME280;33824;51.600;5.718;2023-01-31T06:46:30;102124.88;;;4.50;97.72
48053;BME280;33824;51.600;5.718;2023-01-31T06:48:56;102127.44;;;4.52;97.06
48053;BME280;33824;51.600;5.718;2023-01-31T06:51:22;102107.25;;;4.51;97.32
48053;BME280;33824;51.600;5.718;2023-01-31T06:53:48;102107.69;;;4.45;97.41
48053;BME280;33824;51.600;5.718;2023-01-31T06:56:15;102099.22;;;4.52;96.60
48053;BME280;33824;51.600;5.718;2023-01-31T06:58:41;102106.41;;;4.50;96.80
48053;BME280;33824;51.600;5.718;2023-01-31T07:01:10;102106.41;;;4.50;96.39
48053;BME280;33824;51.600;5.718;2023-01-31T07:03:37;102120.47;;;4.51;97.14
48053;BME280;33824;51.600;5.718;2023-01-31T07:06:03;102117.28;;;4.58;96.69
48053;BME280;33824;51.600;5.718;2023-01-31T07:08:29;102111.28;;;4.56;97.02
48053;BME280;33824;51.600;5.718;2023-01-31T07:10:56;102102.28;;;4.59;96.67
48053;BME280;33824;51.600;5.718;2023-01-31T07:13:22;102105.56;;;4.62;96.68
48053;BME280;33824;51.600;5.718;2023-01-31T07:15:47;102102.59;;;4.54;97.23
48053;BME280;33824;51.600;5.718;2023-01-31T07:18:13;102092.03;;;4.54;97.98
48053;BME280;33824;51.600;5.718;2023-01-31T07:20:39;102088.25;;;4.58;97.84
48053;BME280;33824;51.600;5.718;2023-01-31T07:23:05;102108.66;;;4.56;98.16
48053;BME280;33824;51.600;5.718;2023-01-31T07:25:31;102084.66;;;4.59;98.60
48053;BME280;33824;51.600;5.718;2023-01-31T07:27:59;102085.38;;;4.61;98.51
48053;BME280;33824;51.600;5.718;2023-01-31T07:30:25;102094.28;;;4.60;99.07
48053;BME280;33824;51.600;5.718;2023-01-31T07:32:51;102087.94;;;4.63;99.16
48053;BME280;33824;51.600;5.718;2023-01-31T07:35:17;102078.72;;;4.68;98.86
48053;BME280;33824;51.600;5.718;2023-01-31T07:37:43;102079.69;;;4.67;98.93
48053;BME280;33824;51.600;5.718;2023-01-31T07:40:11;102077.56;;;4.72;98.68
48053;BME280;33824;51.600;5.718;2023-01-31T07:42:37;102072.81;;;4.77;98.21
48053;BME280;33824;51.600;5.718;2023-01-31T07:45:04;102075.13;;;4.82;97.67
48053;BME280;33824;51.600;5.718;2023-01-31T07:47:30;102084.84;;;4.81;97.87
48053;BME280;33824;51.600;5.718;2023-01-31T07:49:55;102074.91;;;4.85;98.31
48053;BME280;33824;51.600;5.718;2023-01-31T07:52:21;102073.75;;;4.89;97.86
48053;BME280;33824;51.600;5.718;2023-01-31T07:54:49;102061.47;;;4.88;97.79
48053;BME280;33824;51.600;5.718;2023-01-31T07:57:15;102068.38;;;4.91;97.36
48053;BME280;33824;51.600;5.718;2023-01-31T07:59:43;102051.00;;;4.99;97.03
48053;BME280;33824;51.600;5.718;2023-01-31T08:02:14;102068.25;;;4.92;96.61
48053;BME280;33824;51.600;5.718;2023-01-31T08:04:59;102059.56;;;5.03;96.72
48053;BME280;33824;51.600;5.718;2023-01-31T08:07:26;102059.22;;;5.07;96.85
48053;BME280;33824;51.600;5.718;2023-01-31T08:09:53;102049.81;;;5.16;96.39
48053;BME280;33824;51.600;5.718;2023-01-31T08:12:19;102042.59;;;5.18;96.16
48053;BME280;33824;51.600;5.718;2023-01-31T08:14:44;102050.31;;;5.21;95.70
48053;BME280;33824;51.600;5.718;2023-01-31T08:17:10;102043.13;;;5.23;95.80
48053;BME280;33824;51.600;5.718;2023-01-31T08:19:36;102054.09;;;5.29;95.42
48053;BME280;33824;51.600;5.718;2023-01-31T08:22:02;102046.78;;;5.33;95.44
48053;BME280;33824;51.600;5.718;2023-01-31T08:24:32;102049.72;;;5.41;95.54
48053;BME280;33824;51.600;5.718;2023-01-31T08:26:58;102033.63;;;5.44;95.02
48053;BME280;33824;51.600;5.718;2023-01-31T08:29:24;102042.91;;;5.50;94.79
48053;BME280;33824;51.600;5.718;2023-01-31T08:31:50;102032.72;;;5.56;94.02
48053;BME280;33824;51.600;5.718;2023-01-31T08:34:16;102029.22;;;5.56;94.14
48053;BME280;33824;51.600;5.718;2023-01-31T08:36:42;102022.66;;;5.61;94.13
48053;BME280;33824;51.600;5.718;2023-01-31T08:39:09;102027.38;;;5.69;93.98
48053;BME280;33824;51.600;5.718;2023-01-31T08:41:36;102016.47;;;5.73;93.91
48053;BME280;33824;51.600;5.718;2023-01-31T08:44:02;102024.06;;;5.78;93.40
48053;BME280;33824;51.600;5.718;2023-01-31T08:46:31;102029.22;;;5.79;92.87
48053;BME280;33824;51.600;5.718;2023-01-31T08:48:59;102015.28;;;5.77;92.73
48053;BME280;33824;51.600;5.718;2023-01-31T08:51:25;102018.28;;;5.84;93.02
48053;BME280;33824;51.600;5.718;2023-01-31T08:53:50;102016.06;;;5.91;93.25
48053;BME280;33824;51.600;5.718;2023-01-31T08:56:16;102002.97;;;6.00;92.54
48053;BME280;33824;51.600;5.718;2023-01-31T08:58:43;102002.63;;;6.05;92.35
48053;BME280;33824;51.600;5.718;2023-01-31T09:01:11;102007.94;;;6.05;91.83
48053;BME280;33824;51.600;5.718;2023-01-31T09:03:37;101995.78;;;6.13;92.27
48053;BME280;33824;51.600;5.718;2023-01-31T09:06:06;101995.91;;;6.12;92.11
48053;BME280;33824;51.600;5.718;2023-01-31T09:08:32;101986.88;;;6.14;92.06
48053;BME280;33824;51.600;5.718;2023-01-31T09:10:58;101982.56;;;6.24;91.54
48053;BME280;33824;51.600;5.718;2023-01-31T09:13:27;101990.28;;;6.28;92.02
48053;BME280;33824;51.600;5.718;2023-01-31T09:15:58;101973.28;;;6.19;90.91
48053;BME280;33824;51.600;5.718;2023-01-31T09:18:24;101984.59;;;6.32;91.23
48053;BME280;33824;51.600;5.718;2023-01-31T09:20:50;101982.69;;;6.34;91.19
48053;BME280;33824;51.600;5.718;2023-01-31T09:23:16;101979.31;;;6.32;91.57
48053;BME280;33824;51.600;5.718;2023-01-31T09:25:44;101962.81;;;6.40;91.31
48053;BME280;33824;51.600;5.718;2023-01-31T09:28:09;101957.06;;;6.46;91.49
48053;BME280;33824;51.600;5.718;2023-01-31T09:30:36;101952.97;;;6.53;91.32
48053;BME280;33824;51.600;5.718;2023-01-31T09:33:01;101961.00;;;6.62;90.92
48053;BME280;33824;51.600;5.718;2023-01-31T09:35:27;101963.06;;;6.70;90.84
48053;BME280;33824;51.600;5.718;2023-01-31T09:37:52;101967.63;;;6.79;90.56
48053;BME280;33824;51.600;5.718;2023-01-31T09:40:23;101968.47;;;6.80;90.48
48053;BME280;33824;51.600;5.718;2023-01-31T09:42:51;101972.34;;;6.75;90.39
48053;BME280;33824;51.600;5.718;2023-01-31T09:45:39;101968.59;;;6.67;90.41
48053;BME280;33824;51.600;5.718;2023-01-31T09:48:20;101951.97;;;6.76;90.61
48053;BME280;33824;51.600;5.718;2023-01-31T09:50:52;101967.03;;;6.75;90.26
48053;BME280;33824;51.600;5.718;2023-01-31T09:53:22;101973.28;;;6.86;90.49
48053;BME280;33824;51.600;5.718;2023-01-31T09:58:41;101964.25;;;6.99;90.86
48053;BME280;33824;51.600;5.718;2023-01-31T10:04:17;101965.22;;;6.87;89.92
48053;BME280;33824;51.600;5.718;2023-01-31T10:09:45;101947.16;;;6.92;91.25
48053;BME280;33824;51.600;5.718;2023-01-31T10:12:23;101956.06;;;6.91;90.55
48053;BME280;33824;51.600;5.718;2023-01-31T10:14:58;101956.03;;;7.02;90.40
48053;BME280;33824;51.600;5.718;2023-01-31T10:17:53;101959.16;;;7.07;89.81
48053;BME280;33824;51.600;5.718;2023-01-31T10:20:34;101962.25;;;7.12;89.82
48053;BME280;33824;51.600;5.718;2023-01-31T10:23:09;101964.78;;;7.25;89.99
48053;BME280;33824;51.600;5.718;2023-01-31T10:25:47;101960.09;;;7.17;90.17
48053;BME280;33824;51.600;5.718;2023-01-31T10:28:29;101965.75;;;7.13;89.81
48053;BME280;33824;51.600;5.718;2023-01-31T10:31:19;101963.47;;;7.08;90.62
48053;BME280;33824;51.600;5.718;2023-01-31T10:33:54;101961.19;;;7.15;91.23
48053;BME280;33824;51.600;5.718;2023-01-31T10:37:12;101957.72;;;7.03;90.88
48053;BME280;33824;51.600;5.718;2023-01-31T10:47:21;101961.78;;;7.18;91.75
48053;BME280;33824;51.600;5.718;2023-01-31T10:49:49;101966.47;;;7.26;92.13
48053;BME280;33824;51.600;5.718;2023-01-31T10:52:25;101954.63;;;7.30;91.99
48053;BME280;33824;51.600;5.718;2023-01-31T10:55:27;101949.25;;;7.09;92.06
48053;BME280;33824;51.600;5.718;2023-01-31T10:57:57;101933.53;;;7.29;92.75
48053;BME280;33824;51.600;5.718;2023-01-31T11:00:29;101930.75;;;7.30;92.68
48053;BME280;33824;51.600;5.718;2023-01-31T11:02:56;101944.09;;;7.40;92.64
48053;BME280;33824;51.600;5.718;2023-01-31T11:05:25;101951.78;;;7.43;92.50
48053;BME280;33824;51.600;5.718;2023-01-31T11:07:51;101937.50;;;7.55;92.60
48053;BME280;33824;51.600;5.718;2023-01-31T11:10:24;101933.25;;;7.63;92.06
48053;BME280;33824;51.600;5.718;2023-01-31T11:12:58;101923.41;;;7.54;91.81
48053;BME280;33824;51.600;5.718;2023-01-31T11:15:35;101926.91;;;7.55;91.75
48053;BME280;33824;51.600;5.718;2023-01-31T11:18:03;101906.06;;;7.71;91.69
48053;BME280;33824;51.600;5.718;2023-01-31T11:20:31;101909.56;;;7.71;92.31
48053;BME280;33824;51.600;5.718;2023-01-31T11:23:00;101910.41;;;7.72;91.74
48053;BME280;33824;51.600;5.718;2023-01-31T11:25:28;101909.56;;;7.71;91.53
48053;BME280;33824;51.600;5.718;2023-01-31T11:28:04;101907.41;;;7.65;92.92
48053;BME280;33824;51.600;5.718;2023-01-31T11:30:41;101901.16;;;7.87;92.05
48053;BME280;33824;51.600;5.718;2023-01-31T11:33:06;101897.19;;;7.82;91.95
48053;BME280;33824;51.600;5.718;2023-01-31T11:35:34;101901.53;;;7.83;92.08
48053;BME280;33824;51.600;5.718;2023-01-31T11:38:19;101888.75;;;7.77;91.47
48053;BME280;33824;51.600;5.718;2023-01-31T11:40:46;101906.19;;;7.90;91.75
48053;BME280;33824;51.600;5.718;2023-01-31T11:45:45;101891.94;;;7.91;91.34
48053;BME280;33824;51.600;5.718;2023-01-31T11:48:21;101896.78;;;7.86;91.08
48053;BME280;33824;51.600;5.718;2023-01-31T11:50:53;101887.41;;;7.82;91.44
48053;BME280;33824;51.600;5.718;2023-01-31T11:53:32;101892.63;;;7.72;91.84
48053;BME280;33824;51.600;5.718;2023-01-31T11:56:21;101902.25;;;7.64;91.88
48053;BME280;33824;51.600;5.718;2023-01-31T11:58:53;101890.44;;;7.78;92.21
48053;BME280;33824;51.600;5.718;2023-01-31T12:01:21;101877.47;;;7.84;92.46
48053;BME280;33824;51.600;5.718;2023-01-31T12:03:57;101874.91;;;7.73;91.76
48053;BME280;33824;51.600;5.718;2023-01-31T12:08:55;101871.59;;;7.81;92.61
48053;BME280;33824;51.600;5.718;2023-01-31T12:11:34;101862.44;;;7.64;91.92
48053;BME280;33824;51.600;5.718;2023-01-31T12:14:10;101868.16;;;7.69;92.42
48053;BME280;33824;51.600;5.718;2023-01-31T12:16:37;101871.75;;;7.79;92.84
48053;BME280;33824;51.600;5.718;2023-01-31T12:21:48;101878.47;;;7.62;93.04
48053;BME280;33824;51.600;5.718;2023-01-31T12:24:28;101867.59;;;7.65;93.84
48053;BME280;33824;51.600;5.718;2023-01-31T12:38:18;101867.72;;;7.22;99.53
48053;BME280;33824;51.600;5.718;2023-01-31T12:41:20;101877.28;;;7.14;100.00
48053;BME280;33824;51.600;5.718;2023-01-31T12:50:04;101878.09;;;6.83;100.00
48053;BME280;33824;51.600;5.718;2023-01-31T13:08:20;101868.72;;;6.79;100.00
48053;BME280;33824;51.600;5.718;2023-01-31T13:10:54;101868.41;;;6.93;100.00
48053;BME280;33824;51.600;5.718;2023-01-31T13:13:32;101856.38;;;6.89;100.00
48053;BME280;33824;51.600;5.718;2023-01-31T13:16:10;101860.03;;;6.88;100.00
48053;BME280;33824;51.600;5.718;2023-01-31T13:18:37;101857.31;;;6.99;100.00
48053;BME280;33824;51.600;5.718;2023-01-31T13:21:05;101850.44;;;6.96;100.00
48053;BME280;33824;51.600;5.718;2023-01-31T13:23:39;101853.50;;;6.92;100.00
48053;BME280;33824;51.600;5.718;2023-01-31T13:26:10;101853.09;;;6.96;100.00
48053;BME280;33824;51.600;5.718;2023-01-31T13:28:45;101866.88;;;6.90;100.00
48053;BME280;33824;51.600;5.718;2023-01-31T13:31:20;101860.88;;;6.88;100.00
48053;BME280;33824;51.600;5.718;2023-01-31T13:33:56;101860.69;;;7.01;100.00
48053;BME280;33824;51.600;5.718;2023-01-31T13:38:50;101855.72;;;7.07;100.00
48053;BME280;33824;51.600;5.718;2023-01-31T13:41:23;101849.59;;;7.07;100.00
48053;BME280;33824;51.600;5.718;2023-01-31T13:43:50;101847.00;;;7.16;100.00
48053;BME280;33824;51.600;5.718;2023-01-31T13:46:20;101844.09;;;7.19;100.00
48053;BME280;33824;51.600;5.718;2023-01-31T13:48:55;101846.16;;;7.16;100.00
48053;BME280;33824;51.600;5.718;2023-01-31T13:51:29;101836.00;;;7.21;100.00
48053;BME280;33824;51.600;5.718;2023-01-31T13:54:06;101828.50;;;7.26;100.00
48053;BME280;33824;51.600;5.718;2023-01-31T13:56:38;101825.34;;;7.32;100.00
48053;BME280;33824;51.600;5.718;2023-01-31T13:59:09;101834.59;;;7.38;100.00
48053;BME280;33824;51.600;5.718;2023-01-31T14:01:43;101826.50;;;7.39;100.00
48053;BME280;33824;51.600;5.718;2023-01-31T14:14:41;101840.16;;;7.76;100.00
48053;BME280;33824;51.600;5.718;2023-01-31T14:17:11;101840.88;;;7.88;100.00
48053;BME280;33824;51.600;5.718;2023-01-31T14:27:33;101850.19;;;8.03;100.00
48053;BME280;33824;51.600;5.718;2023-01-31T14:32:38;101866.53;;;7.98;100.00
48053;BME280;33824;51.600;5.718;2023-01-31T14:45:54;101889.06;;;8.04;100.00
48053;BME280;33824;51.600;5.718;2023-01-31T14:51:18;101886.66;;;8.22;100.00
48053;BME280;33824;51.600;5.718;2023-01-31T14:54:15;101899.09;;;8.00;100.00
48053;BME280;33824;51.600;5.718;2023-01-31T14:57:09;101887.91;;;7.97;100.00
48053;BME280;33824;51.600;5.718;2023-01-31T15:05:05;101895.50;;;8.32;100.00
48053;BME280;33824;51.600;5.718;2023-01-31T15:07:31;101904.75;;;8.37;100.00
48053;BME280;33824;51.600;5.718;2023-01-31T15:09:57;101904.81;;;8.47;100.00
48053;BME280;33824;51.600;5.718;2023-01-31T15:12:51;101905.94;;;8.24;100.00
48053;BME280;33824;51.600;5.718;2023-01-31T15:15:30;101911.06;;;8.36;100.00
48053;BME280;33824;51.600;5.718;2023-01-31T15:18:01;101917.91;;;8.39;100.00
48053;BME280;33824;51.600;5.718;2023-01-31T15:20:36;101916.78;;;8.32;100.00
48053;BME280;33824;51.600;5.718;2023-01-31T15:23:06;101923.91;;;8.31;100.00